sensor_id;sensor_type;location;lat;lon;timestamp;P1;durP1;ratioP1;P2;durP2;ratioP2
85131;SDS011;75493;51.772;19.464;2024-02-23T00:00:06;11.18;;;6.68;;
85131;SDS011;75493;51.772;19.464;2024-02-23T00:02:32;11.95;;;7.30;;
85131;SDS011;75493;51.772;19.464;2024-02-23T00:04:58;10.45;;;6.47;;
85131;SDS011;75493;51.772;19.464;2024-02-23T00:07:24;11.30;;;7.03;;
85131;SDS011;75493;51.772;19.464;2024-02-23T00:09:50;11.48;;;6.78;;
85131;SDS011;75493;51.772;19.464;2024-02-23T00:12:16;9.90;;;6.68;;
85131;SDS011;75493;51.772;19.464;2024-02-23T00:14:42;9.77;;;6.47;;
85131;SDS011;75493;51.772;19.464;2024-02-23T00:17:08;12.25;;;7.45;;
85131;SDS011;75493;51.772;19.464;2024-02-23T00:19:34;12.32;;;6.63;;
85131;SDS011;75493;51.772;19.464;2024-02-23T00:22:00;12.60;;;6.72;;
85131;SDS011;75493;51.772;19.464;2024-02-23T00:24:26;12.07;;;7.68;;
85131;SDS011;75493;51.772;19.464;2024-02-23T00:26:52;12.75;;;8.18;;
85131;SDS011;75493;51.772;19.464;2024-02-23T00:29:18;10.30;;;5.88;;
85131;SDS011;75493;51.772;19.464;2024-02-23T00:31:44;11.13;;;7.07;;
85131;SDS011;75493;51.772;19.464;2024-02-23T00:34:10;10.80;;;6.78;;
85131;SDS011;75493;51.772;19.464;2024-02-23T00:36:38;9.57;;;6.50;;
85131;SDS011;75493;51.772;19.464;2024-02-23T00:39:05;9.73;;;5.72;;
85131;SDS011;75493;51.772;19.464;2024-02-23T00:41:32;9.93;;;6.63;;
85131;SDS011;75493;51.772;19.464;2024-02-23T00:43:58;9.75;;;6.45;;
85131;SDS011;75493;51.772;19.464;2024-02-23T00:46:24;10.55;;;6.13;;
85131;SDS011;75493;51.772;19.464;2024-02-23T00:48:50;9.30;;;5.95;;
85131;SDS011;75493;51.772;19.464;2024-02-23T00:51:16;8.98;;;5.70;;
85131;SDS011;75493;51.772;19.464;2024-02-23T00:53:42;9.43;;;5.90;;
85131;SDS011;75493;51.772;19.464;2024-02-23T00:56:08;10.45;;;4.85;;
85131;SDS011;75493;51.772;19.464;2024-02-23T00:58:34;5.93;;;3.97;;
85131;SDS011;75493;51.772;19.464;2024-02-23T01:01:00;9.02;;;5.00;;
85131;SDS011;75493;51.772;19.464;2024-02-23T01:03:26;9.45;;;5.38;;
85131;SDS011;75493;51.772;19.464;2024-02-23T01:05:52;6.78;;;4.32;;
85131;SDS011;75493;51.772;19.464;2024-02-23T01:08:19;6.32;;;4.38;;
85131;SDS011;75493;51.772;19.464;2024-02-23T01:10:45;7.47;;;4.63;;
85131;SDS011;75493;51.772;19.464;2024-02-23T01:13:11;8.07;;;4.53;;
85131;SDS011;75493;51.772;19.464;2024-02-23T01:15:37;6.78;;;4.45;;
85131;SDS011;75493;51.772;19.464;2024-02-23T01:18:03;7.43;;;4.47;;
85131;SDS011;75493;51.772;19.464;2024-02-23T01:20:31;6.38;;;3.70;;
85131;SDS011;75493;51.772;19.464;2024-02-23T01:22:57;5.45;;;4.25;;
85131;SDS011;75493;51.772;19.464;2024-02-23T01:25:23;5.43;;;3.97;;
85131;SDS011;75493;51.772;19.464;2024-02-23T01:27:48;5.47;;;3.55;;
85131;SDS011;75493;51.772;19.464;2024-02-23T01:30:15;5.07;;;3.28;;
85131;SDS011;75493;51.772;19.464;2024-02-23T01:32:41;7.40;;;4.00;;
85131;SDS011;75493;51.772;19.464;2024-02-23T01:35:07;5.60;;;3.75;;
85131;SDS011;75493;51.772;19.464;2024-02-23T01:37:33;5.47;;;3.60;;
85131;SDS011;75493;51.772;19.464;2024-02-23T01:39:59;5.47;;;3.65;;
85131;SDS011;75493;51.772;19.464;2024-02-23T01:42:26;5.50;;;3.70;;
85131;SDS011;75493;51.772;19.464;2024-02-23T01:44:52;4.90;;;3.53;;
85131;SDS011;75493;51.772;19.464;2024-02-23T01:47:18;6.78;;;3.20;;
85131;SDS011;75493;51.772;19.464;2024-02-23T01:49:45;7.32;;;4.00;;
85131;SDS011;75493;51.772;19.464;2024-02-23T01:52:12;4.50;;;3.47;;
85131;SDS011;75493;51.772;19.464;2024-02-23T01:54:39;5.53;;;3.53;;
85131;SDS011;75493;51.772;19.464;2024-02-23T01:57:05;4.55;;;3.28;;
85131;SDS011;75493;51.772;19.464;2024-02-23T01:59:32;5.22;;;3.40;;
85131;SDS011;75493;51.772;19.464;2024-02-23T02:02:01;5.18;;;3.45;;
85131;SDS011;75493;51.772;19.464;2024-02-23T02:04:28;4.80;;;3.60;;
85131;SDS011;75493;51.772;19.464;2024-02-23T02:06:54;6.22;;;3.97;;
85131;SDS011;75493;51.772;19.464;2024-02-23T02:09:20;4.78;;;3.70;;
85131;SDS011;75493;51.772;19.464;2024-02-23T02:11:49;5.82;;;3.08;;
85131;SDS011;75493;51.772;19.464;2024-02-23T02:14:15;5.03;;;3.53;;
85131;SDS011;75493;51.772;19.464;2024-02-23T02:16:41;6.00;;;3.80;;
85131;SDS011;75493;51.772;19.464;2024-02-23T02:19:08;5.80;;;3.72;;
85131;SDS011;75493;51.772;19.464;2024-02-23T02:21:34;5.43;;;3.40;;
85131;SDS011;75493;51.772;19.464;2024-02-23T02:24:00;6.25;;;3.75;;
85131;SDS011;75493;51.772;19.464;2024-02-23T02:26:26;5.47;;;4.00;;
85131;SDS011;75493;51.772;19.464;2024-02-23T02:28:52;5.72;;;3.67;;
85131;SDS011;75493;51.772;19.464;2024-02-23T02:31:18;4.78;;;3.50;;
85131;SDS011;75493;51.772;19.464;2024-02-23T02:33:44;5.38;;;3.67;;
85131;SDS011;75493;51.772;19.464;2024-02-23T02:36:10;5.35;;;3.38;;
85131;SDS011;75493;51.772;19.464;2024-02-23T02:38:36;3.95;;;3.20;;
85131;SDS011;75493;51.772;19.464;2024-02-23T02:41:02;6.57;;;3.63;;
85131;SDS011;75493;51.772;19.464;2024-02-23T02:43:28;5.25;;;4.15;;
85131;SDS011;75493;51.772;19.464;2024-02-23T02:45:54;6.28;;;3.95;;
85131;SDS011;75493;51.772;19.464;2024-02-23T02:48:20;5.30;;;4.45;;
85131;SDS011;75493;51.772;19.464;2024-02-23T02:50:46;4.72;;;3.47;;
85131;SDS011;75493;51.772;19.464;2024-02-23T02:53:12;5.75;;;3.60;;
85131;SDS011;75493;51.772;19.464;2024-02-23T02:55:42;5.72;;;3.80;;
85131;SDS011;75493;51.772;19.464;2024-02-23T02:58:08;6.38;;;4.38;;
85131;SDS011;75493;51.772;19.464;2024-02-23T03:00:34;5.93;;;4.07;;
85131;SDS011;75493;51.772;19.464;2024-02-23T03:03:00;4.90;;;3.72;;
85131;SDS011;75493;51.772;19.464;2024-02-23T03:05:26;4.78;;;3.42;;
85131;SDS011;75493;51.772;19.464;2024-02-23T03:07:52;7.15;;;4.10;;
85131;SDS011;75493;51.772;19.464;2024-02-23T03:10:18;5.07;;;3.42;;
85131;SDS011;75493;51.772;19.464;2024-02-23T03:12:44;4.75;;;3.55;;
85131;SDS011;75493;51.772;19.464;2024-02-23T03:15:10;7.68;;;3.85;;
85131;SDS011;75493;51.772;19.464;2024-02-23T03:17:36;5.10;;;3.65;;
85131;SDS011;75493;51.772;19.464;2024-02-23T03:20:02;6.03;;;3.95;;
85131;SDS011;75493;51.772;19.464;2024-02-23T03:22:35;6.28;;;4.22;;
85131;SDS011;75493;51.772;19.464;2024-02-23T03:25:02;6.05;;;4.40;;
85131;SDS011;75493;51.772;19.464;2024-02-23T03:27:33;6.50;;;3.90;;
85131;SDS011;75493;51.772;19.464;2024-02-23T03:29:59;6.20;;;3.90;;
85131;SDS011;75493;51.772;19.464;2024-02-23T03:32:25;7.07;;;4.25;;
85131;SDS011;75493;51.772;19.464;2024-02-23T03:34:51;5.78;;;3.80;;
85131;SDS011;75493;51.772;19.464;2024-02-23T03:37:17;5.70;;;3.95;;
85131;SDS011;75493;51.772;19.464;2024-02-23T03:39:43;7.03;;;3.85;;
85131;SDS011;75493;51.772;19.464;2024-02-23T03:42:09;6.57;;;4.38;;
85131;SDS011;75493;51.772;19.464;2024-02-23T03:44:35;6.28;;;4.10;;
85131;SDS011;75493;51.772;19.464;2024-02-23T03:47:01;7.22;;;4.28;;
85131;SDS011;75493;51.772;19.464;2024-02-23T03:49:27;13.20;;;10.38;;
85131;SDS011;75493;51.772;19.464;2024-02-23T03:51:52;59.03;;;30.05;;
85131;SDS011;75493;51.772;19.464;2024-02-23T03:54:18;32.30;;;20.67;;
85131;SDS011;75493;51.772;19.464;2024-02-23T03:56:44;17.05;;;14.00;;
85131;SDS011;75493;51.772;19.464;2024-02-23T03:59:11;23.77;;;21.27;;
85131;SDS011;75493;51.772;19.464;2024-02-23T04:01:37;25.50;;;22.80;;
85131;SDS011;75493;51.772;19.464;2024-02-23T04:04:04;23.85;;;20.70;;
85131;SDS011;75493;51.772;19.464;2024-02-23T04:06:30;55.83;;;49.67;;
85131;SDS011;75493;51.772;19.464;2024-02-23T04:08:56;47.40;;;42.17;;
85131;SDS011;75493;51.772;19.464;2024-02-23T04:11:22;36.30;;;31.67;;
85131;SDS011;75493;51.772;19.464;2024-02-23T04:13:48;21.67;;;19.33;;
85131;SDS011;75493;51.772;19.464;2024-02-23T04:16:14;18.45;;;15.98;;
85131;SDS011;75493;51.772;19.464;2024-02-23T04:18:40;12.05;;;10.35;;
85131;SDS011;75493;51.772;19.464;2024-02-23T04:21:05;7.13;;;5.50;;
85131;SDS011;75493;51.772;19.464;2024-02-23T04:23:31;6.95;;;4.25;;
85131;SDS011;75493;51.772;19.464;2024-02-23T04:25:58;7.38;;;6.07;;
85131;SDS011;75493;51.772;19.464;2024-02-23T04:28:24;7.00;;;5.40;;
85131;SDS011;75493;51.772;19.464;2024-02-23T04:30:51;7.45;;;4.70;;
85131;SDS011;75493;51.772;19.464;2024-02-23T04:33:17;5.43;;;4.10;;
85131;SDS011;75493;51.772;19.464;2024-02-23T04:35:43;6.30;;;4.20;;
85131;SDS011;75493;51.772;19.464;2024-02-23T04:38:09;6.05;;;4.15;;
85131;SDS011;75493;51.772;19.464;2024-02-23T04:40:35;7.38;;;4.30;;
85131;SDS011;75493;51.772;19.464;2024-02-23T04:43:01;6.00;;;4.60;;
85131;SDS011;75493;51.772;19.464;2024-02-23T04:45:27;9.10;;;4.32;;
85131;SDS011;75493;51.772;19.464;2024-02-23T04:47:53;6.22;;;5.22;;
85131;SDS011;75493;51.772;19.464;2024-02-23T04:50:19;6.75;;;4.50;;
85131;SDS011;75493;51.772;19.464;2024-02-23T04:52:45;6.13;;;4.22;;
85131;SDS011;75493;51.772;19.464;2024-02-23T04:55:11;8.43;;;4.82;;
85131;SDS011;75493;51.772;19.464;2024-02-23T04:57:38;5.80;;;4.60;;
85131;SDS011;75493;51.772;19.464;2024-02-23T05:00:05;6.57;;;4.25;;
85131;SDS011;75493;51.772;19.464;2024-02-23T05:02:32;5.80;;;4.03;;
85131;SDS011;75493;51.772;19.464;2024-02-23T05:05:01;5.53;;;3.47;;
85131;SDS011;75493;51.772;19.464;2024-02-23T05:07:27;8.25;;;4.55;;
85131;SDS011;75493;51.772;19.464;2024-02-23T05:09:52;7.40;;;4.70;;
85131;SDS011;75493;51.772;19.464;2024-02-23T05:12:18;5.47;;;4.22;;
85131;SDS011;75493;51.772;19.464;2024-02-23T05:14:44;10.10;;;4.78;;
85131;SDS011;75493;51.772;19.464;2024-02-23T05:17:10;5.40;;;3.42;;
85131;SDS011;75493;51.772;19.464;2024-02-23T05:19:36;6.93;;;4.60;;
85131;SDS011;75493;51.772;19.464;2024-02-23T05:22:02;5.80;;;4.18;;
85131;SDS011;75493;51.772;19.464;2024-02-23T05:24:28;7.60;;;4.72;;
85131;SDS011;75493;51.772;19.464;2024-02-23T05:26:55;7.72;;;4.85;;
85131;SDS011;75493;51.772;19.464;2024-02-23T05:29:22;7.30;;;5.13;;
85131;SDS011;75493;51.772;19.464;2024-02-23T05:31:49;5.03;;;4.32;;
85131;SDS011;75493;51.772;19.464;2024-02-23T05:34:15;5.95;;;4.38;;
85131;SDS011;75493;51.772;19.464;2024-02-23T05:36:42;5.82;;;4.43;;
85131;SDS011;75493;51.772;19.464;2024-02-23T05:39:08;6.07;;;4.80;;
85131;SDS011;75493;51.772;19.464;2024-02-23T05:41:35;6.03;;;4.40;;
85131;SDS011;75493;51.772;19.464;2024-02-23T05:44:01;6.10;;;4.47;;
85131;SDS011;75493;51.772;19.464;2024-02-23T05:46:29;6.38;;;4.53;;
85131;SDS011;75493;51.772;19.464;2024-02-23T05:48:55;7.93;;;4.53;;
85131;SDS011;75493;51.772;19.464;2024-02-23T05:51:21;6.93;;;4.30;;
85131;SDS011;75493;51.772;19.464;2024-02-23T05:53:46;6.47;;;4.28;;
85131;SDS011;75493;51.772;19.464;2024-02-23T05:56:12;7.53;;;4.32;;
85131;SDS011;75493;51.772;19.464;2024-02-23T05:58:38;6.00;;;4.32;;
85131;SDS011;75493;51.772;19.464;2024-02-23T06:01:04;5.63;;;4.07;;
85131;SDS011;75493;51.772;19.464;2024-02-23T06:03:32;5.20;;;3.88;;
85131;SDS011;75493;51.772;19.464;2024-02-23T06:05:58;5.63;;;3.88;;
85131;SDS011;75493;51.772;19.464;2024-02-23T06:08:24;6.82;;;4.05;;
85131;SDS011;75493;51.772;19.464;2024-02-23T06:10:50;6.03;;;4.28;;
85131;SDS011;75493;51.772;19.464;2024-02-23T06:13:16;7.97;;;4.78;;
85131;SDS011;75493;51.772;19.464;2024-02-23T06:15:42;6.90;;;4.63;;
85131;SDS011;75493;51.772;19.464;2024-02-23T06:18:08;6.25;;;4.40;;
85131;SDS011;75493;51.772;19.464;2024-02-23T06:20:34;6.93;;;5.03;;
85131;SDS011;75493;51.772;19.464;2024-02-23T06:23:00;6.65;;;4.50;;
85131;SDS011;75493;51.772;19.464;2024-02-23T06:25:26;6.55;;;4.28;;
85131;SDS011;75493;51.772;19.464;2024-02-23T06:27:52;6.00;;;4.32;;
85131;SDS011;75493;51.772;19.464;2024-02-23T06:30:18;7.78;;;4.85;;
85131;SDS011;75493;51.772;19.464;2024-02-23T06:32:44;5.68;;;4.35;;
85131;SDS011;75493;51.772;19.464;2024-02-23T06:35:10;5.65;;;4.13;;
85131;SDS011;75493;51.772;19.464;2024-02-23T06:37:37;9.05;;;5.05;;
85131;SDS011;75493;51.772;19.464;2024-02-23T06:40:03;6.13;;;3.92;;
85131;SDS011;75493;51.772;19.464;2024-02-23T06:42:29;6.85;;;4.07;;
85131;SDS011;75493;51.772;19.464;2024-02-23T06:44:55;6.35;;;4.63;;
85131;SDS011;75493;51.772;19.464;2024-02-23T06:47:21;8.05;;;4.45;;
85131;SDS011;75493;51.772;19.464;2024-02-23T06:49:47;9.68;;;5.25;;
85131;SDS011;75493;51.772;19.464;2024-02-23T06:52:13;5.55;;;4.40;;
85131;SDS011;75493;51.772;19.464;2024-02-23T06:54:39;7.90;;;4.45;;
85131;SDS011;75493;51.772;19.464;2024-02-23T06:57:05;6.72;;;4.70;;
85131;SDS011;75493;51.772;19.464;2024-02-23T06:59:31;7.25;;;4.55;;
85131;SDS011;75493;51.772;19.464;2024-02-23T07:01:57;7.00;;;4.35;;
85131;SDS011;75493;51.772;19.464;2024-02-23T07:04:23;7.25;;;4.25;;
85131;SDS011;75493;51.772;19.464;2024-02-23T07:06:50;7.00;;;4.28;;
85131;SDS011;75493;51.772;19.464;2024-02-23T07:09:16;8.82;;;4.70;;
85131;SDS011;75493;51.772;19.464;2024-02-23T07:11:42;6.35;;;4.35;;
85131;SDS011;75493;51.772;19.464;2024-02-23T07:14:09;5.93;;;4.53;;
85131;SDS011;75493;51.772;19.464;2024-02-23T07:16:38;6.75;;;4.15;;
85131;SDS011;75493;51.772;19.464;2024-02-23T07:19:07;7.88;;;4.25;;
85131;SDS011;75493;51.772;19.464;2024-02-23T07:21:34;7.00;;;5.00;;
85131;SDS011;75493;51.772;19.464;2024-02-23T07:24:00;7.32;;;4.68;;
85131;SDS011;75493;51.772;19.464;2024-02-23T07:26:26;5.32;;;4.40;;
85131;SDS011;75493;51.772;19.464;2024-02-23T07:28:55;6.38;;;4.43;;
85131;SDS011;75493;51.772;19.464;2024-02-23T07:31:21;9.73;;;5.13;;
85131;SDS011;75493;51.772;19.464;2024-02-23T07:33:47;7.38;;;4.45;;
85131;SDS011;75493;51.772;19.464;2024-02-23T07:36:13;6.90;;;4.40;;
85131;SDS011;75493;51.772;19.464;2024-02-23T07:38:39;7.55;;;5.20;;
85131;SDS011;75493;51.772;19.464;2024-02-23T07:41:05;7.20;;;4.93;;
85131;SDS011;75493;51.772;19.464;2024-02-23T07:43:32;7.55;;;4.82;;
85131;SDS011;75493;51.772;19.464;2024-02-23T07:45:58;8.48;;;4.80;;
85131;SDS011;75493;51.772;19.464;2024-02-23T07:48:24;6.63;;;4.18;;
85131;SDS011;75493;51.772;19.464;2024-02-23T07:50:50;5.28;;;4.32;;
85131;SDS011;75493;51.772;19.464;2024-02-23T07:53:15;6.50;;;4.55;;
85131;SDS011;75493;51.772;19.464;2024-02-23T07:55:41;7.32;;;4.68;;
85131;SDS011;75493;51.772;19.464;2024-02-23T07:58:07;7.55;;;4.63;;
85131;SDS011;75493;51.772;19.464;2024-02-23T08:00:33;6.10;;;4.70;;
85131;SDS011;75493;51.772;19.464;2024-02-23T08:03:02;6.70;;;5.53;;
85131;SDS011;75493;51.772;19.464;2024-02-23T08:05:28;7.43;;;5.60;;
85131;SDS011;75493;51.772;19.464;2024-02-23T08:07:54;9.48;;;4.93;;
85131;SDS011;75493;51.772;19.464;2024-02-23T08:10:20;6.68;;;4.88;;
85131;SDS011;75493;51.772;19.464;2024-02-23T08:12:46;10.70;;;6.40;;
85131;SDS011;75493;51.772;19.464;2024-02-23T08:15:12;7.65;;;5.53;;
85131;SDS011;75493;51.772;19.464;2024-02-23T08:17:38;7.13;;;5.45;;
85131;SDS011;75493;51.772;19.464;2024-02-23T08:20:04;7.75;;;5.40;;
85131;SDS011;75493;51.772;19.464;2024-02-23T08:22:31;6.78;;;5.13;;
85131;SDS011;75493;51.772;19.464;2024-02-23T08:24:56;7.85;;;5.72;;
85131;SDS011;75493;51.772;19.464;2024-02-23T08:27:22;6.30;;;5.00;;
85131;SDS011;75493;51.772;19.464;2024-02-23T08:29:48;7.97;;;5.30;;
85131;SDS011;75493;51.772;19.464;2024-02-23T08:32:14;5.93;;;4.90;;
85131;SDS011;75493;51.772;19.464;2024-02-23T08:34:42;7.22;;;4.85;;
85131;SDS011;75493;51.772;19.464;2024-02-23T08:37:08;5.75;;;4.75;;
85131;SDS011;75493;51.772;19.464;2024-02-23T08:39:34;7.63;;;5.57;;
85131;SDS011;75493;51.772;19.464;2024-02-23T08:42:02;7.80;;;5.90;;
85131;SDS011;75493;51.772;19.464;2024-02-23T08:44:28;6.13;;;5.03;;
85131;SDS011;75493;51.772;19.464;2024-02-23T08:46:54;6.97;;;4.65;;
85131;SDS011;75493;51.772;19.464;2024-02-23T08:49:20;7.95;;;5.63;;
85131;SDS011;75493;51.772;19.464;2024-02-23T08:51:46;7.22;;;4.93;;
85131;SDS011;75493;51.772;19.464;2024-02-23T08:54:12;6.47;;;4.40;;
85131;SDS011;75493;51.772;19.464;2024-02-23T08:56:38;5.88;;;4.40;;
85131;SDS011;75493;51.772;19.464;2024-02-23T08:59:04;7.03;;;5.78;;
85131;SDS011;75493;51.772;19.464;2024-02-23T09:01:30;7.18;;;5.43;;
85131;SDS011;75493;51.772;19.464;2024-02-23T09:03:56;6.45;;;5.60;;
85131;SDS011;75493;51.772;19.464;2024-02-23T09:06:22;5.70;;;5.10;;
85131;SDS011;75493;51.772;19.464;2024-02-23T09:08:48;7.80;;;6.28;;
85131;SDS011;75493;51.772;19.464;2024-02-23T09:11:14;9.40;;;5.82;;
85131;SDS011;75493;51.772;19.464;2024-02-23T09:13:40;6.65;;;4.65;;
85131;SDS011;75493;51.772;19.464;2024-02-23T09:16:07;6.28;;;4.53;;
85131;SDS011;75493;51.772;19.464;2024-02-23T09:18:34;5.85;;;4.72;;
85131;SDS011;75493;51.772;19.464;2024-02-23T09:21:00;8.10;;;4.85;;
85131;SDS011;75493;51.772;19.464;2024-02-23T09:23:26;5.13;;;4.55;;
85131;SDS011;75493;51.772;19.464;2024-02-23T09:25:52;8.60;;;5.70;;
85131;SDS011;75493;51.772;19.464;2024-02-23T09:28:18;7.53;;;5.25;;
85131;SDS011;75493;51.772;19.464;2024-02-23T09:30:44;8.45;;;5.40;;
85131;SDS011;75493;51.772;19.464;2024-02-23T09:33:10;6.35;;;5.05;;
85131;SDS011;75493;51.772;19.464;2024-02-23T09:35:36;6.85;;;4.88;;
85131;SDS011;75493;51.772;19.464;2024-02-23T09:38:02;9.10;;;5.85;;
85131;SDS011;75493;51.772;19.464;2024-02-23T09:40:28;7.95;;;5.50;;
85131;SDS011;75493;51.772;19.464;2024-02-23T09:42:58;10.63;;;5.63;;
85131;SDS011;75493;51.772;19.464;2024-02-23T09:45:24;8.65;;;5.88;;
85131;SDS011;75493;51.772;19.464;2024-02-23T09:47:54;7.50;;;5.70;;
85131;SDS011;75493;51.772;19.464;2024-02-23T09:50:22;11.43;;;6.90;;
85131;SDS011;75493;51.772;19.464;2024-02-23T09:52:48;7.50;;;6.03;;
85131;SDS011;75493;51.772;19.464;2024-02-23T09:55:16;8.18;;;6.63;;
85131;SDS011;75493;51.772;19.464;2024-02-23T09:57:43;9.75;;;6.50;;
85131;SDS011;75493;51.772;19.464;2024-02-23T10:00:09;8.10;;;5.78;;
85131;SDS011;75493;51.772;19.464;2024-02-23T10:02:35;7.38;;;5.55;;
85131;SDS011;75493;51.772;19.464;2024-02-23T10:05:01;11.90;;;5.72;;
85131;SDS011;75493;51.772;19.464;2024-02-23T10:07:28;7.97;;;5.95;;
85131;SDS011;75493;51.772;19.464;2024-02-23T10:09:54;8.90;;;5.43;;
85131;SDS011;75493;51.772;19.464;2024-02-23T10:12:20;7.45;;;5.50;;
85131;SDS011;75493;51.772;19.464;2024-02-23T10:14:46;7.28;;;5.25;;
85131;SDS011;75493;51.772;19.464;2024-02-23T10:17:12;8.07;;;5.60;;
85131;SDS011;75493;51.772;19.464;2024-02-23T10:19:38;7.40;;;5.30;;
85131;SDS011;75493;51.772;19.464;2024-02-23T10:22:04;7.97;;;5.28;;
85131;SDS011;75493;51.772;19.464;2024-02-23T10:24:30;9.27;;;6.28;;
85131;SDS011;75493;51.772;19.464;2024-02-23T10:26:56;7.88;;;6.03;;
85131;SDS011;75493;51.772;19.464;2024-02-23T10:29:23;10.57;;;5.40;;
85131;SDS011;75493;51.772;19.464;2024-02-23T10:31:49;6.40;;;4.60;;
85131;SDS011;75493;51.772;19.464;2024-02-23T10:34:17;9.07;;;5.47;;
85131;SDS011;75493;51.772;19.464;2024-02-23T10:36:44;9.55;;;5.97;;
85131;SDS011;75493;51.772;19.464;2024-02-23T10:39:13;9.10;;;5.05;;
85131;SDS011;75493;51.772;19.464;2024-02-23T10:41:42;8.65;;;6.13;;
85131;SDS011;75493;51.772;19.464;2024-02-23T10:44:10;7.47;;;4.97;;
85131;SDS011;75493;51.772;19.464;2024-02-23T10:46:36;8.82;;;5.28;;
85131;SDS011;75493;51.772;19.464;2024-02-23T10:49:02;7.95;;;5.85;;
85131;SDS011;75493;51.772;19.464;2024-02-23T10:51:29;6.43;;;5.13;;
85131;SDS011;75493;51.772;19.464;2024-02-23T10:53:56;7.43;;;5.45;;
85131;SDS011;75493;51.772;19.464;2024-02-23T10:56:22;6.38;;;5.30;;
85131;SDS011;75493;51.772;19.464;2024-02-23T10:58:49;9.13;;;6.22;;
85131;SDS011;75493;51.772;19.464;2024-02-23T11:01:15;11.40;;;6.65;;
85131;SDS011;75493;51.772;19.464;2024-02-23T11:03:42;12.30;;;7.55;;
85131;SDS011;75493;51.772;19.464;2024-02-23T11:06:11;10.63;;;7.10;;
85131;SDS011;75493;51.772;19.464;2024-02-23T11:08:37;10.95;;;7.28;;
85131;SDS011;75493;51.772;19.464;2024-02-23T11:11:07;10.98;;;8.00;;
85131;SDS011;75493;51.772;19.464;2024-02-23T11:13:39;10.65;;;6.47;;
85131;SDS011;75493;51.772;19.464;2024-02-23T11:16:06;10.60;;;7.05;;
85131;SDS011;75493;51.772;19.464;2024-02-23T11:18:34;9.60;;;6.50;;
85131;SDS011;75493;51.772;19.464;2024-02-23T11:21:01;9.13;;;6.25;;
85131;SDS011;75493;51.772;19.464;2024-02-23T11:23:38;8.50;;;6.63;;
85131;SDS011;75493;51.772;19.464;2024-02-23T11:26:04;8.25;;;5.25;;
85131;SDS011;75493;51.772;19.464;2024-02-23T11:28:33;7.70;;;5.78;;
85131;SDS011;75493;51.772;19.464;2024-02-23T11:30:59;8.50;;;6.10;;
85131;SDS011;75493;51.772;19.464;2024-02-23T11:33:28;8.07;;;5.40;;
85131;SDS011;75493;51.772;19.464;2024-02-23T11:36:04;9.00;;;5.32;;
85131;SDS011;75493;51.772;19.464;2024-02-23T11:38:30;8.70;;;5.63;;
85131;SDS011;75493;51.772;19.464;2024-02-23T11:40:59;9.90;;;5.88;;
85131;SDS011;75493;51.772;19.464;2024-02-23T11:43:25;9.15;;;5.03;;
85131;SDS011;75493;51.772;19.464;2024-02-23T11:45:51;8.95;;;5.45;;
85131;SDS011;75493;51.772;19.464;2024-02-23T11:48:17;8.48;;;5.95;;
85131;SDS011;75493;51.772;19.464;2024-02-23T11:50:43;11.93;;;7.93;;
85131;SDS011;75493;51.772;19.464;2024-02-23T11:53:09;15.32;;;8.65;;
85131;SDS011;75493;51.772;19.464;2024-02-23T11:55:35;21.58;;;11.63;;
85131;SDS011;75493;51.772;19.464;2024-02-23T11:58:01;12.90;;;8.32;;
85131;SDS011;75493;51.772;19.464;2024-02-23T12:00:27;10.75;;;7.43;;
85131;SDS011;75493;51.772;19.464;2024-02-23T12:02:55;9.18;;;6.43;;
85131;SDS011;75493;51.772;19.464;2024-02-23T12:05:21;10.13;;;6.82;;
85131;SDS011;75493;51.772;19.464;2024-02-23T12:07:47;8.32;;;6.35;;
85131;SDS011;75493;51.772;19.464;2024-02-23T12:10:13;9.73;;;6.82;;
85131;SDS011;75493;51.772;19.464;2024-02-23T12:12:39;10.45;;;7.10;;
85131;SDS011;75493;51.772;19.464;2024-02-23T12:15:06;11.35;;;9.30;;
85131;SDS011;75493;51.772;19.464;2024-02-23T12:17:32;13.02;;;10.30;;
85131;SDS011;75493;51.772;19.464;2024-02-23T12:20:01;11.25;;;7.97;;
85131;SDS011;75493;51.772;19.464;2024-02-23T12:22:27;9.38;;;6.07;;
85131;SDS011;75493;51.772;19.464;2024-02-23T12:24:56;9.35;;;6.22;;
85131;SDS011;75493;51.772;19.464;2024-02-23T12:27:22;8.45;;;6.22;;
85131;SDS011;75493;51.772;19.464;2024-02-23T12:29:53;7.60;;;6.30;;
85131;SDS011;75493;51.772;19.464;2024-02-23T12:32:22;7.25;;;5.75;;
85131;SDS011;75493;51.772;19.464;2024-02-23T12:34:48;6.97;;;5.22;;
85131;SDS011;75493;51.772;19.464;2024-02-23T12:37:23;7.72;;;5.03;;
85131;SDS011;75493;51.772;19.464;2024-02-23T12:39:49;6.40;;;4.68;;
85131;SDS011;75493;51.772;19.464;2024-02-23T12:42:14;8.13;;;5.60;;
85131;SDS011;75493;51.772;19.464;2024-02-23T12:44:40;5.85;;;5.00;;
85131;SDS011;75493;51.772;19.464;2024-02-23T12:47:06;7.22;;;5.30;;
85131;SDS011;75493;51.772;19.464;2024-02-23T12:49:32;7.45;;;5.22;;
85131;SDS011;75493;51.772;19.464;2024-02-23T12:51:58;8.23;;;5.35;;
85131;SDS011;75493;51.772;19.464;2024-02-23T12:54:24;8.57;;;5.45;;
85131;SDS011;75493;51.772;19.464;2024-02-23T12:56:50;8.50;;;6.22;;
85131;SDS011;75493;51.772;19.464;2024-02-23T12:59:16;10.82;;;6.50;;
85131;SDS011;75493;51.772;19.464;2024-02-23T13:01:43;9.00;;;5.75;;
85131;SDS011;75493;51.772;19.464;2024-02-23T13:04:08;9.10;;;5.85;;
85131;SDS011;75493;51.772;19.464;2024-02-23T13:06:37;10.75;;;6.40;;
85131;SDS011;75493;51.772;19.464;2024-02-23T13:09:03;10.70;;;6.30;;
85131;SDS011;75493;51.772;19.464;2024-02-23T13:11:30;10.77;;;7.53;;
85131;SDS011;75493;51.772;19.464;2024-02-23T13:13:56;14.27;;;8.68;;
85131;SDS011;75493;51.772;19.464;2024-02-23T13:16:22;15.60;;;9.98;;
85131;SDS011;75493;51.772;19.464;2024-02-23T13:18:48;14.18;;;9.20;;
85131;SDS011;75493;51.772;19.464;2024-02-23T13:21:14;14.90;;;8.85;;
85131;SDS011;75493;51.772;19.464;2024-02-23T13:23:40;13.40;;;9.32;;
85131;SDS011;75493;51.772;19.464;2024-02-23T13:26:08;12.93;;;9.23;;
85131;SDS011;75493;51.772;19.464;2024-02-23T13:28:35;11.60;;;8.10;;
85131;SDS011;75493;51.772;19.464;2024-02-23T13:31:01;10.05;;;7.57;;
85131;SDS011;75493;51.772;19.464;2024-02-23T13:33:27;11.57;;;8.23;;
85131;SDS011;75493;51.772;19.464;2024-02-23T13:35:53;11.05;;;7.72;;
85131;SDS011;75493;51.772;19.464;2024-02-23T13:38:20;11.43;;;7.25;;
85131;SDS011;75493;51.772;19.464;2024-02-23T13:40:46;10.88;;;7.07;;
85131;SDS011;75493;51.772;19.464;2024-02-23T13:43:12;14.10;;;8.60;;
85131;SDS011;75493;51.772;19.464;2024-02-23T13:45:47;13.32;;;7.97;;
85131;SDS011;75493;51.772;19.464;2024-02-23T13:48:14;12.65;;;8.38;;
85131;SDS011;75493;51.772;19.464;2024-02-23T13:50:40;13.88;;;9.93;;
85131;SDS011;75493;51.772;19.464;2024-02-23T13:53:06;13.77;;;9.50;;
85131;SDS011;75493;51.772;19.464;2024-02-23T13:55:32;12.55;;;9.05;;
85131;SDS011;75493;51.772;19.464;2024-02-23T13:57:57;16.83;;;9.68;;
85131;SDS011;75493;51.772;19.464;2024-02-23T14:00:23;15.77;;;9.00;;
85131;SDS011;75493;51.772;19.464;2024-02-23T14:02:50;14.35;;;8.32;;
85131;SDS011;75493;51.772;19.464;2024-02-23T14:05:16;14.27;;;8.98;;
85131;SDS011;75493;51.772;19.464;2024-02-23T14:07:43;12.93;;;8.55;;
85131;SDS011;75493;51.772;19.464;2024-02-23T14:10:09;14.00;;;8.85;;
85131;SDS011;75493;51.772;19.464;2024-02-23T14:12:35;13.13;;;9.68;;
85131;SDS011;75493;51.772;19.464;2024-02-23T14:15:01;12.63;;;9.57;;
85131;SDS011;75493;51.772;19.464;2024-02-23T14:17:27;15.63;;;8.90;;
85131;SDS011;75493;51.772;19.464;2024-02-23T14:19:53;12.70;;;8.38;;
85131;SDS011;75493;51.772;19.464;2024-02-23T14:22:19;11.93;;;7.35;;
85131;SDS011;75493;51.772;19.464;2024-02-23T14:24:46;11.80;;;8.07;;